Bill's Weather Station Status
Memory
total used free shared buff/cache available
Mem: 3918876 553692 277868 2940 3087316 3079716
Swap: 0 0 0
Uptime
20:02:37 up 54 days, 14:58, 0 users, load average: 0.00, 0.01, 0.00
Temperature Database
meteo table size: 911703 rows
Last 50 temperature measurements:
2026-09-01 20:00:06: Inside: 82.2, Outside: 73.2, Pressure: 30.004, Humidity: 77, Illumination: 0.00
2026-09-01 19:55:06: Inside: 82.4, Outside: 73.4, Pressure: 29.995, Humidity: 75, Illumination: 0.00
2026-09-01 19:50:06: Inside: 82.4, Outside: 73.4, Pressure: 29.980, Humidity: 75, Illumination: 0.00
2026-09-01 19:45:05: Inside: 82.4, Outside: 72.5, Pressure: 29.984, Humidity: 73, Illumination: 0.00
2026-09-01 19:40:06: Inside: 82.7, Outside: 71.5, Pressure: 29.985, Humidity: 71, Illumination: 0.00
2026-09-01 19:35:06: Inside: 82.2, Outside: 71.5, Pressure: 29.974, Humidity: 73, Illumination: 0.00
2026-09-01 19:30:06: Inside: 82.3, Outside: 72.0, Pressure: 29.964, Humidity: 72, Illumination: 0.00
2026-09-01 19:25:06: Inside: 82.6, Outside: 72.6, Pressure: 29.939, Humidity: 74, Illumination: 0.00
2026-09-01 19:20:05: Inside: 83.2, Outside: 75.7, Pressure: 29.985, Humidity: 75, Illumination: 0.00
2026-09-01 19:15:05: Inside: 82.7, Outside: 76.0, Pressure: 29.975, Humidity: 75, Illumination: 0.00
2026-09-01 19:10:05: Inside: 82.5, Outside: 76.3, Pressure: 29.964, Humidity: 73, Illumination: 0.00
2026-09-01 19:05:05: Inside: 82.6, Outside: 76.4, Pressure: 29.961, Humidity: 73, Illumination: 1.00
2026-09-01 19:00:05: Inside: 82.6, Outside: 76.5, Pressure: 29.964, Humidity: 74, Illumination: 2.00
2026-09-01 18:55:05: Inside: 82.6, Outside: 76.8, Pressure: 29.963, Humidity: 74, Illumination: 3.00
2026-09-01 18:50:06: Inside: 82.6, Outside: 76.8, Pressure: 29.960, Humidity: 72, Illumination: 3.00
2026-09-01 18:45:06: Inside: 82.7, Outside: 76.7, Pressure: 29.968, Humidity: 73, Illumination: 4.00
2026-09-01 18:40:06: Inside: 82.7, Outside: 76.8, Pressure: 29.968, Humidity: 74, Illumination: 3.00
2026-09-01 18:35:06: Inside: 82.7, Outside: 77.0, Pressure: 29.968, Humidity: 74, Illumination: 7.00
2026-09-01 18:30:06: Inside: 82.8, Outside: 77.5, Pressure: 29.963, Humidity: 74, Illumination: 7.00
2026-09-01 18:25:05: Inside: 82.8, Outside: 77.5, Pressure: 29.948, Humidity: 74, Illumination: 9.00
2026-09-01 18:20:05: Inside: 83.0, Outside: 77.7, Pressure: 29.946, Humidity: 74, Illumination: 12.00
2026-09-01 18:15:05: Inside: 83.0, Outside: 78.1, Pressure: 29.955, Humidity: 74, Illumination: 8.00
2026-09-01 18:10:06: Inside: 83.1, Outside: 78.2, Pressure: 29.957, Humidity: 73, Illumination: 11.00
2026-09-01 18:05:06: Inside: 83.1, Outside: 78.8, Pressure: 29.959, Humidity: 74, Illumination: 13.00
2026-09-01 18:00:06: Inside: 83.1, Outside: 79.5, Pressure: 29.966, Humidity: 74, Illumination: 17.00
2026-09-01 17:55:06: Inside: 83.2, Outside: 80.0, Pressure: 29.966, Humidity: 74, Illumination: 25.00
2026-09-01 17:50:06: Inside: 83.2, Outside: 80.4, Pressure: 29.965, Humidity: 75, Illumination: 38.00
2026-09-01 17:45:06: Inside: 83.3, Outside: 80.9, Pressure: 29.962, Humidity: 74, Illumination: 39.00
2026-09-01 17:40:05: Inside: 83.3, Outside: 80.6, Pressure: 29.963, Humidity: 75, Illumination: 41.00
2026-09-01 17:35:05: Inside: 83.4, Outside: 80.7, Pressure: 29.961, Humidity: 74, Illumination: 44.00
2026-09-01 17:30:05: Inside: 83.4, Outside: 81.3, Pressure: 29.959, Humidity: 74, Illumination: 42.00
2026-09-01 17:25:05: Inside: 83.5, Outside: 81.4, Pressure: 29.958, Humidity: 73, Illumination: 44.00
2026-09-01 17:20:05: Inside: 83.6, Outside: 81.8, Pressure: 29.959, Humidity: 73, Illumination: 45.00
2026-09-01 17:15:05: Inside: 83.5, Outside: 82.1, Pressure: 29.959, Humidity: 74, Illumination: 46.00
2026-09-01 17:10:05: Inside: 83.4, Outside: 82.3, Pressure: 29.957, Humidity: 74, Illumination: 44.00
2026-09-01 17:05:05: Inside: 83.4, Outside: 82.1, Pressure: 29.957, Humidity: 74, Illumination: 46.00
2026-09-01 17:00:05: Inside: 83.4, Outside: 81.7, Pressure: 29.958, Humidity: 74, Illumination: 46.00
2026-09-01 16:55:06: Inside: 83.4, Outside: 81.7, Pressure: 29.960, Humidity: 74, Illumination: 51.00
2026-09-01 16:50:05: Inside: 83.4, Outside: 82.1, Pressure: 29.962, Humidity: 74, Illumination: 81.00
2026-09-01 16:45:05: Inside: 83.4, Outside: 82.2, Pressure: 29.961, Humidity: 74, Illumination: 80.00
2026-09-01 16:40:05: Inside: 83.4, Outside: 83.2, Pressure: 29.964, Humidity: 74, Illumination: 40.00
2026-09-01 16:35:04: Inside: 83.4, Outside: 83.4, Pressure: 29.963, Humidity: 73, Illumination: 61.00
2026-09-01 16:30:06: Inside: 83.5, Outside: 84.5, Pressure: 29.959, Humidity: 73, Illumination: 38.00
2026-09-01 16:25:06: Inside: 83.5, Outside: 85.0, Pressure: 29.954, Humidity: 73, Illumination: 55.00
2026-09-01 16:20:06: Inside: 83.5, Outside: 84.9, Pressure: 29.951, Humidity: 73, Illumination: 41.00
2026-09-01 16:15:05: Inside: 83.5, Outside: 85.5, Pressure: 29.950, Humidity: 74, Illumination: 29.00
2026-09-01 16:10:05: Inside: 83.5, Outside: 86.3, Pressure: 29.946, Humidity: 74, Illumination: 26.00
2026-09-01 16:05:05: Inside: 83.6, Outside: 87.6, Pressure: 29.946, Humidity: 75, Illumination: 33.00
2026-09-01 16:00:05: Inside: 83.6, Outside: 88.2, Pressure: 29.946, Humidity: 74, Illumination: 45.00
2026-09-01 15:55:05: Inside: 83.5, Outside: 88.8, Pressure: 29.943, Humidity: 74, Illumination: 49.00
Gas Readings Database
gas table size: 258034 rows
Last 50 gas reading changes:
2026-09-01 19:17:40: Reading: 110804
2026-09-01 19:13:25: Reading: 110802, ΔT: 4 min, ΔR: 2 cf
2026-09-01 19:09:09: Reading: 110800, ΔT: 4 min, ΔR: 2 cf
2026-09-01 19:01:55: Reading: 110798, ΔT: 7 min, ΔR: 2 cf
2026-09-01 18:31:40: Reading: 110796, ΔT: 30 min, ΔR: 2 cf
2026-09-01 18:28:39: Reading: 110794, ΔT: 3 min, ΔR: 2 cf
2026-09-01 18:27:39: Reading: 110792, ΔT: 1 min, ΔR: 2 cf
2026-09-01 18:25:24: Reading: 110788, ΔT: 2 min, ΔR: 4 cf
2026-09-01 16:51:40: Reading: 110786, ΔT: 93 min, ΔR: 2 cf
2026-09-01 16:47:39: Reading: 110782, ΔT: 4 min, ΔR: 4 cf
2026-09-01 14:56:10: Reading: 110780, ΔT: 111 min, ΔR: 2 cf
2026-09-01 14:55:10: Reading: 110778, ΔT: 1 min, ΔR: 2 cf
2026-09-01 12:33:56: Reading: 110774, ΔT: 141 min, ΔR: 4 cf
2026-09-01 12:04:55: Reading: 110772, ΔT: 29 min, ΔR: 2 cf
2026-09-01 12:04:10: Reading: 110770, ΔT: 0 min, ΔR: 2 cf
2026-09-01 11:10:10: Reading: 110768, ΔT: 54 min, ΔR: 2 cf
2026-09-01 10:20:10: Reading: 110766, ΔT: 50 min, ΔR: 2 cf
2026-09-01 10:17:55: Reading: 110764, ΔT: 2 min, ΔR: 2 cf
2026-09-01 09:13:26: Reading: 110762, ΔT: 64 min, ΔR: 2 cf
2026-09-01 08:56:41: Reading: 110760, ΔT: 16 min, ΔR: 2 cf
2026-09-01 08:53:40: Reading: 110756, ΔT: 3 min, ΔR: 4 cf
2026-09-01 07:47:56: Reading: 110754, ΔT: 65 min, ΔR: 2 cf
2026-09-01 07:46:25: Reading: 110752, ΔT: 1 min, ΔR: 2 cf
2026-09-01 07:01:10: Reading: 110750, ΔT: 45 min, ΔR: 2 cf
2026-09-01 05:49:11: Reading: 110748, ΔT: 71 min, ΔR: 2 cf
2026-09-01 05:46:10: Reading: 110746, ΔT: 3 min, ΔR: 2 cf
2026-09-01 03:52:41: Reading: 110744, ΔT: 113 min, ΔR: 2 cf
2026-09-01 03:50:25: Reading: 110740, ΔT: 2 min, ΔR: 4 cf
2026-09-01 01:26:41: Reading: 110738, ΔT: 143 min, ΔR: 2 cf
2026-09-01 01:23:41: Reading: 110732, ΔT: 3 min, ΔR: 6 cf
2026-08-31 22:31:41: Reading: 110730, ΔT: 172 min, ΔR: 2 cf
2026-08-31 22:28:41: Reading: 110726, ΔT: 3 min, ΔR: 4 cf
2026-08-31 21:13:42: Reading: 110724, ΔT: 74 min, ΔR: 2 cf
2026-08-31 21:00:12: Reading: 110722, ΔT: 13 min, ΔR: 2 cf
2026-08-31 20:57:57: Reading: 110718, ΔT: 2 min, ΔR: 4 cf
2026-08-31 19:57:42: Reading: 110716, ΔT: 60 min, ΔR: 2 cf
2026-08-31 19:45:11: Reading: 110714, ΔT: 12 min, ΔR: 2 cf
2026-08-31 19:32:41: Reading: 110712, ΔT: 12 min, ΔR: 2 cf
2026-08-31 19:30:26: Reading: 110710, ΔT: 2 min, ΔR: 2 cf
2026-08-31 19:11:41: Reading: 110708, ΔT: 18 min, ΔR: 2 cf
2026-08-31 19:03:56: Reading: 110706, ΔT: 7 min, ΔR: 2 cf
2026-08-31 19:03:26: Reading: 110704, ΔT: 0 min, ΔR: 2 cf
2026-08-31 19:01:27: Reading: 110702, ΔT: 1 min, ΔR: 2 cf
2026-08-31 16:45:57: Reading: 110700, ΔT: 135 min, ΔR: 2 cf
2026-08-31 16:38:41: Reading: 110698, ΔT: 7 min, ΔR: 2 cf
2026-08-31 16:37:41: Reading: 110696, ΔT: 1 min, ΔR: 2 cf
2026-08-31 16:35:27: Reading: 110694, ΔT: 2 min, ΔR: 2 cf
2026-08-31 14:13:27: Reading: 110692, ΔT: 142 min, ΔR: 2 cf
2026-08-31 14:12:26: Reading: 110690, ΔT: 1 min, ΔR: 2 cf
2026-08-31 14:11:42: Reading: 110688, ΔT: 0 min, ΔR: 2 cf